Ashby, Nebraska
Current Conditions -  °F | °C
As of 12:53 PM on Thursday 30 Oct 2014 (Local Time) from KAIA Reporting Station
Clear Clear  
Wind Chill: 60°   Ceiling: Unl
Heat Index: 60°   Visibility: 10mi
Dew Point: 32°   Wind: 17mph
Humidity: 35%   Direction: 340°NNW
Pressure: 30.3"   Gusts: 25mph
Location:  42.02°N, 101.93°W
Report Text: KAIA 301853Z AUTO 34015G22KT 10SM CLR 16/00 A3030 RMK AO2 SLP261 T01560000
Loading
Personal Weather Stations






























Interactive Weather Map
Tropical Storm Tracking
New forecast layout! Learn more

10-Day Weather Forecast

Advertisements
Track Severe Weather on mobile